createdAt,value
2023-05-21T00:02:18.755Z,16.67
2023-05-21T00:04:45.620Z,16.63
2023-05-21T00:07:12.748Z,16.60
2023-05-21T00:09:39.473Z,16.61
2023-05-21T00:12:07.738Z,16.58
2023-05-21T00:14:34.860Z,16.56
2023-05-21T00:17:01.464Z,16.57
2023-05-21T00:19:28.084Z,16.58
2023-05-21T00:21:54.798Z,16.56
2023-05-21T00:24:21.202Z,16.56
2023-05-21T00:26:47.597Z,16.55
2023-05-21T00:29:13.957Z,16.45
2023-05-21T00:31:40.944Z,16.47
2023-05-21T00:34:07.474Z,16.47
2023-05-21T00:36:34.532Z,16.46
2023-05-21T00:39:02.284Z,16.46
2023-05-21T00:41:30.110Z,16.40
2023-05-21T00:43:57.112Z,16.40
2023-05-21T00:46:23.970Z,16.42
2023-05-21T00:48:51.132Z,16.42
2023-05-21T00:51:18.683Z,16.42
2023-05-21T00:53:46.529Z,16.41
2023-05-21T00:56:13.072Z,16.42
2023-05-21T00:58:40.702Z,16.44
2023-05-21T01:01:07.297Z,16.45
2023-05-21T01:03:38.379Z,16.45
2023-05-21T01:06:06.457Z,16.44
2023-05-21T01:08:37.681Z,16.43
2023-05-21T01:11:05.672Z,16.36
2023-05-21T01:13:36.912Z,16.34
2023-05-21T01:16:06.707Z,16.33
2023-05-21T01:18:37.806Z,16.35
2023-05-21T01:21:05.384Z,16.33
2023-05-21T01:23:32.044Z,16.30
2023-05-21T01:25:58.558Z,16.28
2023-05-21T01:28:25.071Z,16.25
2023-05-21T01:30:51.612Z,16.26
2023-05-21T01:33:32.126Z,16.26
2023-05-21T01:36:08.532Z,16.26
2023-05-21T01:38:43.639Z,16.24
2023-05-21T01:41:18.144Z,16.24
2023-05-21T01:43:47.140Z,16.23
2023-05-21T01:46:19.998Z,16.16
2023-05-21T01:48:49.738Z,16.17
2023-05-21T01:51:16.865Z,16.19
2023-05-21T01:53:43.259Z,16.18
2023-05-21T01:56:11.322Z,16.21
2023-05-21T01:58:38.049Z,16.15
2023-05-21T02:01:05.176Z,16.14
2023-05-21T02:03:31.788Z,16.13
2023-05-21T02:05:58.500Z,16.14
2023-05-21T02:08:25.542Z,16.14
2023-05-21T02:10:51.982Z,16.11
2023-05-21T02:13:21.529Z,16.07
2023-05-21T02:15:49.483Z,16.11
2023-05-21T02:18:16.705Z,16.11
2023-05-21T02:20:43.685Z,16.04
2023-05-21T02:23:10.189Z,16.00
2023-05-21T02:25:36.966Z,15.97
2023-05-21T02:28:03.935Z,15.96
2023-05-21T02:30:30.366Z,15.94
2023-05-21T02:32:58.944Z,15.96
2023-05-21T02:35:25.542Z,15.97
2023-05-21T02:37:51.972Z,15.94
2023-05-21T02:40:18.402Z,15.95
2023-05-21T02:42:44.811Z,15.88
2023-05-21T02:45:13.451Z,15.91
2023-05-21T02:47:40.917Z,15.92
2023-05-21T02:50:08.791Z,15.85
2023-05-21T02:52:35.429Z,15.85
2023-05-21T02:55:01.954Z,15.89
2023-05-21T02:57:28.430Z,15.88
2023-05-21T02:59:54.906Z,15.85
2023-05-21T03:02:21.548Z,15.83
2023-05-21T03:04:48.915Z,15.84
2023-05-21T03:07:18.001Z,15.85
2023-05-21T03:09:44.434Z,15.82
2023-05-21T03:12:11.035Z,15.81
2023-05-21T03:14:38.216Z,15.79
2023-05-21T03:17:06.269Z,15.72
2023-05-21T03:19:36.696Z,15.69
2023-05-21T03:22:04.026Z,15.75
2023-05-21T03:24:30.781Z,15.77
2023-05-21T03:26:57.523Z,15.71
2023-05-21T03:29:24.019Z,15.66
2023-05-21T03:31:52.900Z,15.67
2023-05-21T03:34:20.134Z,15.67
2023-05-21T03:36:47.189Z,15.67
2023-05-21T03:39:13.649Z,15.67
2023-05-21T03:41:40.742Z,15.67
2023-05-21T03:44:07.137Z,15.63
2023-05-21T03:46:33.895Z,15.59
2023-05-21T03:49:00.552Z,15.59
2023-05-21T03:51:27.552Z,15.60
2023-05-21T03:53:53.952Z,15.56
2023-05-21T03:56:21.483Z,15.57
2023-05-21T03:58:47.969Z,15.54
2023-05-21T04:01:14.603Z,15.58
2023-05-21T04:03:41.321Z,15.55
2023-05-21T04:06:10.157Z,15.55
2023-05-21T04:08:37.933Z,15.53
2023-05-21T04:11:04.449Z,15.54
2023-05-21T04:13:30.921Z,15.54
2023-05-21T04:15:57.386Z,15.51
2023-05-21T04:18:25.937Z,15.51
2023-05-21T04:20:53.652Z,15.50
2023-05-21T04:23:20.071Z,15.49
2023-05-21T04:25:50.526Z,15.53
2023-05-21T04:28:20.069Z,15.53
2023-05-21T04:30:47.580Z,15.53
2023-05-21T04:33:17.922Z,15.46
2023-05-21T04:35:47.383Z,15.47
2023-05-21T04:38:14.133Z,15.50
2023-05-21T04:40:41.776Z,15.52
2023-05-21T04:43:08.283Z,15.53
2023-05-21T04:45:35.144Z,15.44
2023-05-21T04:48:02.750Z,15.46
2023-05-21T04:50:30.820Z,15.48
2023-05-21T04:52:58.662Z,15.48
2023-05-21T04:55:25.155Z,15.45
2023-05-21T04:57:52.648Z,15.42
2023-05-21T05:00:19.617Z,15.38
2023-05-21T05:02:46.342Z,15.37
2023-05-21T05:05:12.914Z,15.37
2023-05-21T05:07:39.336Z,15.39
2023-05-21T05:10:06.485Z,15.42
2023-05-21T05:12:32.925Z,15.41
2023-05-21T05:14:59.340Z,15.44
2023-05-21T05:17:25.750Z,15.43
2023-05-21T05:19:53.131Z,15.39
2023-05-21T05:22:19.561Z,15.39
2023-05-21T05:24:45.941Z,15.37
2023-05-21T05:27:12.386Z,15.38
2023-05-21T05:29:38.852Z,15.38
2023-05-21T05:32:05.907Z,15.36
2023-05-21T05:34:32.410Z,15.39
2023-05-21T05:36:58.872Z,15.36
2023-05-21T05:39:25.536Z,15.38
2023-05-21T05:41:52.034Z,15.36
2023-05-21T05:44:18.509Z,15.35
2023-05-21T05:46:45.182Z,15.38
2023-05-21T05:49:11.858Z,15.42
2023-05-21T05:51:38.251Z,15.44
2023-05-21T05:54:04.864Z,15.44
2023-05-21T05:56:31.279Z,15.40
2023-05-21T05:58:58.930Z,15.38
2023-05-21T06:01:26.162Z,15.36
2023-05-21T06:03:53.105Z,15.35
2023-05-21T06:06:19.907Z,15.35
2023-05-21T06:08:46.510Z,15.32
2023-05-21T06:11:17.065Z,15.33
2023-05-21T06:13:43.651Z,15.34
2023-05-21T06:16:10.370Z,15.39
2023-05-21T06:18:37.439Z,15.40
2023-05-21T06:21:03.989Z,15.44
2023-05-21T06:23:32.599Z,15.47
2023-05-21T06:25:59.110Z,15.56
2023-05-21T06:28:25.517Z,15.62
2023-05-21T06:30:51.945Z,15.70
2023-05-21T06:33:18.482Z,15.75
2023-05-21T06:35:44.925Z,15.73
2023-05-21T06:38:11.422Z,15.69
2023-05-21T06:40:37.856Z,15.63
2023-05-21T06:43:05.288Z,15.63
2023-05-21T06:45:31.791Z,15.67
2023-05-21T06:47:58.293Z,15.69
2023-05-21T06:50:24.755Z,15.67
2023-05-21T06:52:51.342Z,15.70
2023-05-21T06:55:17.926Z,15.77
2023-05-21T06:57:44.361Z,15.79
2023-05-21T07:00:12.203Z,15.79
2023-05-21T07:02:38.809Z,15.83
2023-05-21T07:05:05.749Z,15.84
2023-05-21T07:07:32.224Z,15.86
2023-05-21T07:09:58.653Z,15.88
2023-05-21T07:12:25.077Z,15.90
2023-05-21T07:14:51.501Z,15.96
2023-05-21T07:17:18.008Z,15.99
2023-05-21T07:19:44.415Z,16.01
2023-05-21T07:22:12.559Z,16.07
2023-05-21T07:24:38.953Z,16.07
2023-05-21T07:27:17.847Z,16.08
2023-05-21T07:29:50.896Z,16.13
2023-05-21T07:32:17.417Z,16.17
2023-05-21T07:34:43.814Z,16.23
2023-05-21T07:37:10.373Z,16.27
2023-05-21T07:39:37.718Z,16.34
2023-05-21T07:42:04.267Z,16.37
2023-05-21T07:44:31.837Z,16.36
2023-05-21T07:46:58.284Z,16.38
2023-05-21T07:49:24.676Z,16.45
2023-05-21T07:51:51.132Z,16.45
2023-05-21T07:54:17.660Z,16.47
2023-05-21T07:56:44.036Z,16.53
2023-05-21T07:59:12.181Z,16.56
2023-05-21T08:01:40.974Z,16.57
2023-05-21T08:04:07.841Z,16.61
2023-05-21T08:06:34.576Z,16.65
2023-05-21T08:09:04.710Z,16.70
2023-05-21T08:11:31.117Z,16.73
2023-05-21T08:13:57.594Z,16.79
2023-05-21T08:16:24.104Z,16.79
2023-05-21T08:18:51.467Z,16.81
2023-05-21T08:21:18.045Z,16.80
2023-05-21T08:23:44.615Z,16.83
2023-05-21T08:26:11.806Z,16.83
2023-05-21T08:28:39.171Z,16.83
2023-05-21T08:31:05.916Z,16.94
2023-05-21T08:33:36.982Z,17.00
2023-05-21T08:36:07.188Z,16.99
2023-05-21T08:38:34.584Z,16.93
2023-05-21T08:41:01.214Z,16.95
2023-05-21T08:43:28.578Z,16.99
2023-05-21T08:45:57.266Z,17.09
2023-05-21T08:48:24.461Z,17.09
2023-05-21T08:50:52.790Z,17.14
2023-05-21T08:53:27.528Z,17.22
2023-05-21T08:55:57.377Z,17.35
2023-05-21T08:58:24.445Z,17.46
2023-05-21T09:00:50.996Z,17.51
2023-05-21T09:03:17.811Z,17.57
2023-05-21T09:05:45.893Z,17.62
2023-05-21T09:08:18.371Z,17.65
2023-05-21T09:10:52.257Z,17.65
2023-05-21T09:13:20.088Z,17.71
2023-05-21T09:15:47.381Z,17.82
2023-05-21T09:18:14.757Z,17.90
2023-05-21T09:20:41.570Z,17.96
2023-05-21T09:23:16.917Z,17.98
2023-05-21T09:25:48.672Z,17.95
2023-05-21T09:28:17.080Z,18.00
2023-05-21T09:30:45.615Z,18.12
2023-05-21T09:33:13.085Z,18.13
2023-05-21T09:35:46.487Z,18.24
2023-05-21T09:38:13.132Z,18.33
2023-05-21T09:40:45.582Z,18.43
2023-05-21T09:43:16.289Z,18.47
2023-05-21T09:46:03.016Z,18.55
2023-05-21T09:48:36.528Z,18.56
2023-05-21T09:51:07.725Z,18.62
2023-05-21T09:53:34.176Z,18.63
2023-05-21T09:56:00.543Z,18.69
2023-05-21T09:58:27.030Z,18.76
2023-05-21T10:00:53.699Z,18.82
2023-05-21T10:03:23.660Z,18.93
2023-05-21T10:05:53.743Z,18.92
2023-05-21T10:08:22.752Z,18.91
2023-05-21T10:10:49.774Z,18.93
2023-05-21T10:13:21.783Z,18.99
2023-05-21T10:15:55.598Z,19.06
2023-05-21T10:18:23.457Z,19.08
2023-05-21T10:20:51.295Z,19.11
2023-05-21T10:23:18.556Z,19.18
2023-05-21T10:25:46.215Z,19.28
2023-05-21T10:28:17.024Z,19.29
2023-05-21T10:30:44.573Z,19.35
2023-05-21T10:33:16.433Z,19.41
2023-05-21T10:35:44.960Z,19.46
2023-05-21T10:38:13.522Z,19.55
2023-05-21T10:40:40.667Z,19.49
2023-05-21T10:43:35.863Z,19.55
2023-05-21T10:46:36.415Z,19.43
2023-05-21T10:49:12.721Z,19.47
2023-05-21T10:51:49.124Z,19.57
2023-05-21T10:54:54.249Z,19.63
2023-05-21T10:57:45.270Z,19.64
2023-05-21T11:00:15.517Z,19.56
2023-05-21T11:02:42.672Z,19.68
2023-05-21T11:05:09.268Z,19.71
2023-05-21T11:08:02.345Z,19.72
2023-05-21T11:10:40.777Z,19.73
2023-05-21T11:13:13.225Z,19.71
2023-05-21T11:15:58.151Z,19.76
2023-05-21T11:18:47.372Z,19.77
2023-05-21T11:21:20.861Z,19.77
2023-05-21T11:24:01.026Z,19.91
2023-05-21T11:26:29.852Z,20.07
2023-05-21T11:29:05.714Z,20.19
2023-05-21T11:31:38.199Z,20.35
2023-05-21T11:34:10.901Z,20.46
2023-05-21T11:36:38.212Z,20.51
2023-05-21T11:39:15.600Z,20.59
2023-05-21T11:41:58.406Z,20.68
2023-05-21T11:44:41.990Z,20.75
2023-05-21T11:47:10.227Z,20.75
2023-05-21T11:49:37.435Z,20.70
2023-05-21T11:52:05.820Z,20.75
2023-05-21T11:54:36.794Z,20.78
2023-05-21T11:57:09.894Z,20.82
2023-05-21T11:59:36.593Z,20.87
2023-05-21T12:02:03.894Z,20.86
2023-05-21T12:04:36.402Z,20.87
2023-05-21T12:07:09.455Z,20.83
2023-05-21T12:09:43.142Z,20.73
2023-05-21T12:12:10.625Z,20.76
2023-05-21T12:14:37.548Z,20.93
2023-05-21T12:17:05.392Z,20.98
2023-05-21T12:19:36.369Z,21.08
2023-05-21T12:22:04.063Z,21.14
2023-05-21T12:24:31.438Z,21.21
2023-05-21T12:27:02.160Z,21.24
2023-05-21T12:29:30.583Z,21.27
2023-05-21T12:32:01.328Z,21.27
2023-05-21T12:34:57.364Z,21.28
2023-05-21T12:37:31.239Z,21.28
2023-05-21T12:40:02.690Z,21.18
2023-05-21T12:42:31.037Z,21.06
2023-05-21T12:44:58.197Z,21.15
2023-05-21T12:47:28.725Z,21.22
2023-05-21T12:50:00.192Z,21.20
2023-05-21T12:52:27.488Z,21.29
2023-05-21T12:54:56.351Z,21.37
2023-05-21T12:57:25.427Z,21.40
2023-05-21T12:59:56.635Z,21.33
2023-05-21T13:02:28.013Z,21.27
2023-05-21T13:04:56.856Z,21.21
2023-05-21T13:07:23.969Z,21.23
2023-05-21T13:09:53.167Z,21.22
2023-05-21T13:12:21.984Z,21.31
2023-05-21T13:14:53.389Z,21.40
2023-05-21T13:17:20.809Z,21.46
2023-05-21T13:20:13.308Z,21.44
2023-05-21T13:22:51.065Z,21.44
2023-05-21T13:25:20.942Z,21.49
2023-05-21T13:27:48.793Z,21.45
2023-05-21T13:30:15.433Z,21.41
2023-05-21T13:32:42.539Z,21.39
2023-05-21T13:35:10.119Z,21.44
2023-05-21T13:37:36.966Z,21.43
2023-05-21T13:40:04.782Z,21.42
2023-05-21T13:42:31.255Z,21.45
2023-05-21T13:44:58.064Z,21.46
2023-05-21T13:47:24.623Z,21.46
2023-05-21T13:49:51.238Z,21.50
2023-05-21T13:52:18.089Z,21.46
2023-05-21T13:54:44.607Z,21.42
2023-05-21T13:57:11.079Z,21.33
2023-05-21T13:59:37.581Z,21.37
2023-05-21T14:02:04.093Z,21.44
2023-05-21T14:04:30.570Z,21.44
2023-05-21T14:06:57.290Z,21.48
2023-05-21T14:09:27.006Z,21.46
2023-05-21T14:11:55.069Z,21.41
2023-05-21T14:14:22.593Z,21.39
2023-05-21T14:16:50.663Z,21.41
2023-05-21T14:19:17.602Z,21.42
2023-05-21T14:21:44.374Z,21.38
2023-05-21T14:24:10.829Z,21.37
2023-05-21T14:26:40.015Z,21.41
2023-05-21T14:29:06.844Z,21.45
2023-05-21T14:31:33.315Z,21.51
2023-05-21T14:33:59.754Z,21.54
2023-05-21T14:36:26.248Z,21.52
2023-05-21T14:38:52.666Z,21.49
2023-05-21T14:41:19.040Z,21.51
2023-05-21T14:43:45.446Z,21.56
2023-05-21T14:46:11.834Z,21.57
2023-05-21T14:48:38.245Z,21.56
2023-05-21T14:51:04.655Z,21.47
2023-05-21T14:53:31.052Z,21.39
2023-05-21T14:55:57.479Z,21.43
2023-05-21T14:58:23.884Z,21.51
2023-05-21T15:00:50.265Z,21.41
2023-05-21T15:03:16.751Z,21.39
2023-05-21T15:05:43.240Z,21.43
2023-05-21T15:08:09.974Z,21.45
2023-05-21T15:10:36.474Z,21.38
2023-05-21T15:13:02.950Z,21.34
2023-05-21T15:15:29.530Z,21.32
2023-05-21T15:17:57.674Z,21.34
2023-05-21T15:20:24.290Z,21.30
2023-05-21T15:22:52.345Z,21.30
2023-05-21T15:25:21.460Z,21.27
2023-05-21T15:27:48.919Z,21.25
2023-05-21T15:30:16.921Z,21.26
2023-05-21T15:32:43.312Z,21.23
2023-05-21T15:35:10.095Z,21.13
2023-05-21T15:37:36.593Z,21.11
2023-05-21T15:40:03.251Z,21.09
2023-05-21T15:42:31.797Z,21.14
2023-05-21T15:44:58.511Z,21.10
2023-05-21T15:47:25.033Z,21.12
2023-05-21T15:49:51.744Z,21.16
2023-05-21T15:52:19.803Z,21.19
2023-05-21T15:54:46.801Z,21.17
2023-05-21T15:57:13.305Z,21.14
2023-05-21T15:59:39.819Z,21.18
2023-05-21T16:02:06.360Z,21.12
2023-05-21T16:04:33.865Z,21.04
2023-05-21T16:07:00.330Z,21.00
2023-05-21T16:09:26.737Z,21.00
2023-05-21T16:11:53.138Z,21.00
2023-05-21T16:14:19.511Z,21.01
2023-05-21T16:16:45.942Z,21.07
2023-05-21T16:19:12.350Z,21.07
2023-05-21T16:21:38.865Z,21.04
2023-05-21T16:24:05.664Z,21.03
2023-05-21T16:26:32.127Z,20.98
2023-05-21T16:28:58.893Z,21.01
2023-05-21T16:31:25.438Z,21.08
2023-05-21T16:33:51.872Z,21.13
2023-05-21T16:36:18.563Z,21.08
2023-05-21T16:38:45.020Z,21.01
2023-05-21T16:41:11.650Z,21.02
2023-05-21T16:43:38.027Z,21.03
2023-05-21T16:46:04.465Z,21.01
2023-05-21T16:48:32.214Z,21.02
2023-05-21T16:50:59.038Z,21.04
2023-05-21T16:53:25.592Z,21.07
2023-05-21T16:55:52.000Z,21.14
2023-05-21T16:58:19.011Z,21.17
2023-05-21T17:00:45.837Z,21.18
2023-05-21T17:03:12.585Z,21.10
2023-05-21T17:05:39.283Z,21.09
2023-05-21T17:08:05.775Z,21.06
2023-05-21T17:10:33.186Z,20.95
2023-05-21T17:13:01.898Z,20.94
2023-05-21T17:15:33.265Z,20.91
2023-05-21T17:17:59.791Z,20.95
2023-05-21T17:20:26.456Z,21.04
2023-05-21T17:22:52.964Z,21.03
2023-05-21T17:25:19.537Z,20.98
2023-05-21T17:27:46.070Z,20.93
2023-05-21T17:30:12.890Z,20.92
2023-05-21T17:32:39.426Z,20.97
2023-05-21T17:35:06.496Z,20.96
2023-05-21T17:37:32.909Z,20.92
2023-05-21T17:39:59.394Z,20.97
2023-05-21T17:42:25.842Z,21.05
2023-05-21T17:44:53.540Z,20.98
2023-05-21T17:47:20.040Z,20.95
2023-05-21T17:49:46.468Z,20.89
2023-05-21T17:52:12.813Z,20.81
2023-05-21T17:54:39.430Z,20.71
2023-05-21T17:57:06.066Z,20.74
2023-05-21T17:59:32.526Z,20.81
2023-05-21T18:02:01.383Z,20.84
2023-05-21T18:04:27.848Z,20.89
2023-05-21T18:06:54.411Z,20.83
2023-05-21T18:09:20.926Z,20.72
2023-05-21T18:11:47.385Z,20.73
2023-05-21T18:14:13.836Z,20.73
2023-05-21T18:16:41.132Z,20.74
2023-05-21T18:19:07.689Z,20.68
2023-05-21T18:21:35.094Z,20.61
2023-05-21T18:24:02.280Z,20.53
2023-05-21T18:26:30.188Z,20.47
2023-05-21T18:28:57.943Z,20.46
2023-05-21T18:31:24.903Z,20.39
2023-05-21T18:33:51.726Z,20.41
2023-05-21T18:36:18.684Z,20.36
2023-05-21T18:38:45.137Z,20.30
2023-05-21T18:41:11.674Z,20.25
2023-05-21T18:43:38.092Z,20.27
2023-05-21T18:46:04.518Z,20.28
2023-05-21T18:48:30.922Z,20.30
2023-05-21T18:50:57.420Z,20.26
2023-05-21T18:53:23.810Z,20.14
2023-05-21T18:55:50.234Z,20.10
2023-05-21T18:58:16.718Z,20.08
2023-05-21T19:00:43.369Z,20.02
2023-05-21T19:03:09.897Z,19.99
2023-05-21T19:05:36.496Z,19.95
2023-05-21T19:08:03.848Z,19.91
2023-05-21T19:10:30.716Z,19.93
2023-05-21T19:12:57.374Z,19.90
2023-05-21T19:15:23.936Z,19.86
2023-05-21T19:17:50.432Z,19.88
2023-05-21T19:20:24.386Z,19.78
2023-05-21T19:22:51.003Z,19.66
2023-05-21T19:25:17.416Z,19.63
2023-05-21T19:27:44.220Z,19.56
2023-05-21T19:30:10.928Z,19.51
2023-05-21T19:32:37.390Z,19.38
2023-05-21T19:35:05.562Z,19.44
2023-05-21T19:37:31.993Z,19.52
2023-05-21T19:39:58.442Z,19.56
2023-05-21T19:42:24.850Z,19.49
2023-05-21T19:44:51.277Z,19.42
2023-05-21T19:47:17.727Z,19.46
2023-05-21T19:49:44.161Z,19.41
2023-05-21T19:52:11.965Z,19.38
2023-05-21T19:54:38.537Z,19.34
2023-05-21T19:57:05.835Z,19.26
2023-05-21T19:59:32.445Z,19.18
2023-05-21T20:01:59.013Z,19.17
2023-05-21T20:04:25.564Z,19.15
2023-05-21T20:06:52.035Z,19.08
2023-05-21T20:09:18.517Z,19.04
2023-05-21T20:11:44.983Z,19.08
2023-05-21T20:14:11.484Z,19.01
2023-05-21T20:16:37.992Z,18.96
2023-05-21T20:19:04.576Z,18.93
2023-05-21T20:21:33.886Z,18.90
2023-05-21T20:24:00.349Z,18.84
2023-05-21T20:26:26.900Z,18.86
2023-05-21T20:28:53.756Z,18.87
2023-05-21T20:31:21.554Z,18.82
2023-05-21T20:33:50.381Z,18.81
2023-05-21T20:36:17.598Z,18.73
2023-05-21T20:38:45.546Z,18.66
2023-05-21T20:41:12.217Z,18.59
2023-05-21T20:43:38.773Z,18.63
2023-05-21T20:46:05.739Z,18.57
2023-05-21T20:48:32.334Z,18.58
2023-05-21T20:50:59.921Z,18.56
2023-05-21T20:53:26.727Z,18.58
2023-05-21T20:55:54.610Z,18.55
2023-05-21T20:58:22.432Z,18.54
2023-05-21T21:00:50.406Z,18.49
2023-05-21T21:03:17.946Z,18.46
2023-05-21T21:05:44.566Z,18.41
2023-05-21T21:08:11.004Z,18.43
2023-05-21T21:10:38.631Z,18.33
2023-05-21T21:13:07.077Z,18.36
2023-05-21T21:15:34.084Z,18.40
2023-05-21T21:18:00.612Z,18.35
2023-05-21T21:20:27.212Z,18.37
2023-05-21T21:22:53.719Z,18.40
2023-05-21T21:25:20.876Z,18.25
2023-05-21T21:27:47.332Z,18.25
2023-05-21T21:30:13.796Z,18.29
2023-05-21T21:32:41.172Z,18.28
2023-05-21T21:35:07.981Z,18.26
2023-05-21T21:37:34.477Z,18.29
2023-05-21T21:40:00.857Z,18.23
2023-05-21T21:42:27.355Z,18.27
2023-05-21T21:44:53.734Z,18.25
2023-05-21T21:47:20.095Z,18.29
2023-05-21T21:49:47.940Z,18.21
2023-05-21T21:52:14.706Z,18.25
2023-05-21T21:54:41.228Z,18.27
2023-05-21T21:57:07.673Z,18.25
2023-05-21T21:59:34.380Z,18.22
2023-05-21T22:02:01.100Z,18.17
2023-05-21T22:04:27.620Z,18.15
2023-05-21T22:06:54.062Z,18.09
2023-05-21T22:09:22.514Z,18.08
2023-05-21T22:11:49.082Z,18.10
2023-05-21T22:14:15.896Z,18.04
2023-05-21T22:16:43.112Z,17.99
2023-05-21T22:19:10.067Z,17.92
2023-05-21T22:21:36.810Z,17.86
2023-05-21T22:24:04.016Z,17.72
2023-05-21T22:26:30.494Z,17.82
2023-05-21T22:28:58.963Z,17.80
2023-05-21T22:31:26.739Z,17.81
2023-05-21T22:33:53.243Z,17.77
2023-05-21T22:36:19.691Z,17.70
2023-05-21T22:38:46.233Z,17.71
2023-05-21T22:41:12.719Z,17.72
2023-05-21T22:43:39.348Z,17.68
2023-05-21T22:46:05.822Z,17.67
2023-05-21T22:48:33.977Z,17.66
2023-05-21T22:51:01.580Z,17.65
2023-05-21T22:53:28.093Z,17.75
2023-05-21T22:55:54.480Z,17.76
2023-05-21T22:58:20.942Z,17.76
2023-05-21T23:00:47.907Z,17.73
2023-05-21T23:03:14.310Z,17.78
2023-05-21T23:05:41.127Z,17.79
2023-05-21T23:08:07.743Z,17.82
2023-05-21T23:10:35.365Z,17.77
2023-05-21T23:13:01.848Z,17.70
2023-05-21T23:15:29.496Z,17.72
2023-05-21T23:17:56.754Z,17.66
2023-05-21T23:20:24.881Z,17.69
2023-05-21T23:22:51.899Z,17.80
2023-05-21T23:25:18.355Z,17.90
2023-05-21T23:27:44.957Z,17.99
2023-05-21T23:30:12.083Z,18.02
2023-05-21T23:32:38.708Z,17.95
2023-05-21T23:35:05.628Z,17.97
2023-05-21T23:37:32.119Z,18.00
2023-05-21T23:39:58.514Z,17.85
2023-05-21T23:42:24.951Z,17.61
2023-05-21T23:44:51.301Z,17.63
2023-05-21T23:47:17.789Z,17.71
2023-05-21T23:49:44.193Z,17.80
2023-05-21T23:52:12.940Z,17.83
2023-05-21T23:54:39.401Z,17.69
2023-05-21T23:57:06.312Z,17.69
2023-05-21T23:59:32.783Z,17.68
